sensor_id;sensor_type;location;lat;lon;timestamp;temperature;humidity
36206;DHT22;22242;48.796;9.930;2023-02-28T00:00:25;-1.80;99.90
36206;DHT22;22242;48.796;9.930;2023-02-28T00:02:53;-1.80;99.90
36206;DHT22;22242;48.796;9.930;2023-02-28T00:05:22;-1.90;99.90
36206;DHT22;22242;48.796;9.930;2023-02-28T00:07:49;-1.80;99.90
36206;DHT22;22242;48.796;9.930;2023-02-28T00:10:18;-1.80;99.90
36206;DHT22;22242;48.796;9.930;2023-02-28T00:12:48;-1.80;99.90
36206;DHT22;22242;48.796;9.930;2023-02-28T00:15:16;-1.80;99.90
36206;DHT22;22242;48.796;9.930;2023-02-28T00:17:43;-1.80;99.90
36206;DHT22;22242;48.796;9.930;2023-02-28T00:20:11;-1.90;99.90
36206;DHT22;22242;48.796;9.930;2023-02-28T00:22:40;-1.90;99.90
36206;DHT22;22242;48.796;9.930;2023-02-28T00:25:13;-1.80;99.90
36206;DHT22;22242;48.796;9.930;2023-02-28T00:27:41;-1.90;99.90
36206;DHT22;22242;48.796;9.930;2023-02-28T00:30:12;-1.90;99.90
36206;DHT22;22242;48.796;9.930;2023-02-28T00:32:39;-1.90;99.90
36206;DHT22;22242;48.796;9.930;2023-02-28T00:35:08;-1.80;99.90
36206;DHT22;22242;48.796;9.930;2023-02-28T00:37:35;-1.90;99.90
36206;DHT22;22242;48.796;9.930;2023-02-28T00:40:06;-1.90;99.90
36206;DHT22;22242;48.796;9.930;2023-02-28T00:42:34;-1.90;99.90
36206;DHT22;22242;48.796;9.930;2023-02-28T00:45:01;-1.80;99.90
36206;DHT22;22242;48.796;9.930;2023-02-28T00:47:32;-1.80;99.90
36206;DHT22;22242;48.796;9.930;2023-02-28T00:49:59;-1.90;99.90
36206;DHT22;22242;48.796;9.930;2023-02-28T00:52:27;-1.90;99.90
36206;DHT22;22242;48.796;9.930;2023-02-28T00:54:54;-1.80;99.90
36206;DHT22;22242;48.796;9.930;2023-02-28T00:57:22;-1.80;99.90
36206;DHT22;22242;48.796;9.930;2023-02-28T00:59:49;-1.80;99.90
36206;DHT22;22242;48.796;9.930;2023-02-28T01:02:16;-1.80;99.90
36206;DHT22;22242;48.796;9.930;2023-02-28T01:04:45;-1.80;99.90
36206;DHT22;22242;48.796;9.930;2023-02-28T01:07:13;-1.90;99.90
36206;DHT22;22242;48.796;9.930;2023-02-28T01:09:40;-1.90;99.90
36206;DHT22;22242;48.796;9.930;2023-02-28T01:12:08;-1.80;99.90
36206;DHT22;22242;48.796;9.930;2023-02-28T01:14:35;-1.80;99.90
36206;DHT22;22242;48.796;9.930;2023-02-28T01:17:02;-1.80;99.90
36206;DHT22;22242;48.796;9.930;2023-02-28T01:19:31;-1.90;99.90
36206;DHT22;22242;48.796;9.930;2023-02-28T01:22:02;-1.90;99.90
36206;DHT22;22242;48.796;9.930;2023-02-28T01:24:29;-1.90;99.90
36206;DHT22;22242;48.796;9.930;2023-02-28T01:26:56;-1.90;99.90
36206;DHT22;22242;48.796;9.930;2023-02-28T01:29:24;-1.90;99.90
36206;DHT22;22242;48.796;9.930;2023-02-28T01:31:52;-1.90;99.90
36206;DHT22;22242;48.796;9.930;2023-02-28T01:34:19;-2.00;99.90
36206;DHT22;22242;48.796;9.930;2023-02-28T01:36:46;-1.90;99.90
36206;DHT22;22242;48.796;9.930;2023-02-28T01:39:15;-1.90;99.90
36206;DHT22;22242;48.796;9.930;2023-02-28T01:41:42;-1.90;99.90
36206;DHT22;22242;48.796;9.930;2023-02-28T01:47:10;-1.90;99.90
36206;DHT22;22242;48.796;9.930;2023-02-28T01:49:38;-1.90;99.90
36206;DHT22;22242;48.796;9.930;2023-02-28T01:52:06;-1.90;99.90
36206;DHT22;22242;48.796;9.930;2023-02-28T01:54:35;-2.00;99.90
36206;DHT22;22242;48.796;9.930;2023-02-28T01:57:05;-2.00;99.90
36206;DHT22;22242;48.796;9.930;2023-02-28T01:59:36;-2.00;99.90
36206;DHT22;22242;48.796;9.930;2023-02-28T02:02:05;-2.10;99.90
36206;DHT22;22242;48.796;9.930;2023-02-28T02:04:37;-2.00;99.90
36206;DHT22;22242;48.796;9.930;2023-02-28T02:07:06;-2.00;99.90
36206;DHT22;22242;48.796;9.930;2023-02-28T02:09:35;-2.10;99.90
36206;DHT22;22242;48.796;9.930;2023-02-28T02:12:09;-2.20;99.90
36206;DHT22;22242;48.796;9.930;2023-02-28T02:14:51;-2.20;99.90
36206;DHT22;22242;48.796;9.930;2023-02-28T02:17:28;-2.10;99.90
36206;DHT22;22242;48.796;9.930;2023-02-28T02:20:37;-2.20;99.90
36206;DHT22;22242;48.796;9.930;2023-02-28T02:23:34;-2.20;99.90
36206;DHT22;22242;48.796;9.930;2023-02-28T02:26:36;-2.20;99.90
36206;DHT22;22242;48.796;9.930;2023-02-28T02:29:24;-2.30;99.90
36206;DHT22;22242;48.796;9.930;2023-02-28T02:35:12;-2.30;99.90
36206;DHT22;22242;48.796;9.930;2023-02-28T02:37:44;-2.30;99.90
36206;DHT22;22242;48.796;9.930;2023-02-28T02:40:18;-2.30;99.90
36206;DHT22;22242;48.796;9.930;2023-02-28T02:42:51;-2.30;99.90
36206;DHT22;22242;48.796;9.930;2023-02-28T02:45:22;-2.30;99.90
36206;DHT22;22242;48.796;9.930;2023-02-28T02:47:50;-2.40;99.90
36206;DHT22;22242;48.796;9.930;2023-02-28T02:50:22;-2.30;99.90
36206;DHT22;22242;48.796;9.930;2023-02-28T02:52:53;-2.30;99.90
36206;DHT22;22242;48.796;9.930;2023-02-28T02:55:23;-2.40;99.90
36206;DHT22;22242;48.796;9.930;2023-02-28T02:57:54;-2.30;99.90
36206;DHT22;22242;48.796;9.930;2023-02-28T03:00:25;-2.20;99.90
36206;DHT22;22242;48.796;9.930;2023-02-28T03:02:54;-2.20;99.90
36206;DHT22;22242;48.796;9.930;2023-02-28T03:05:26;-2.20;99.90
36206;DHT22;22242;48.796;9.930;2023-02-28T03:07:54;-2.20;99.90
36206;DHT22;22242;48.796;9.930;2023-02-28T03:10:35;-2.20;99.90
36206;DHT22;22242;48.796;9.930;2023-02-28T03:13:14;-2.10;99.90
36206;DHT22;22242;48.796;9.930;2023-02-28T03:18:19;-2.20;99.90
36206;DHT22;22242;48.796;9.930;2023-02-28T03:20:54;-2.20;99.90
36206;DHT22;22242;48.796;9.930;2023-02-28T03:23:34;-2.20;99.90
36206;DHT22;22242;48.796;9.930;2023-02-28T03:26:07;-2.10;99.90
36206;DHT22;22242;48.796;9.930;2023-02-28T03:28:43;-2.10;99.90
36206;DHT22;22242;48.796;9.930;2023-02-28T03:31:18;-2.10;99.90
36206;DHT22;22242;48.796;9.930;2023-02-28T03:33:50;-2.10;99.90
36206;DHT22;22242;48.796;9.930;2023-02-28T03:36:25;-2.10;99.90
36206;DHT22;22242;48.796;9.930;2023-02-28T03:38:57;-2.10;99.90
36206;DHT22;22242;48.796;9.930;2023-02-28T03:41:32;-2.10;99.90
36206;DHT22;22242;48.796;9.930;2023-02-28T03:44:05;-2.10;99.90
36206;DHT22;22242;48.796;9.930;2023-02-28T03:46:36;-2.10;99.90
36206;DHT22;22242;48.796;9.930;2023-02-28T03:49:09;-2.10;99.90
36206;DHT22;22242;48.796;9.930;2023-02-28T03:51:40;-2.10;99.90
36206;DHT22;22242;48.796;9.930;2023-02-28T03:54:12;-2.00;99.90
36206;DHT22;22242;48.796;9.930;2023-02-28T03:56:45;-2.00;99.90
36206;DHT22;22242;48.796;9.930;2023-02-28T03:59:17;-2.00;99.90
36206;DHT22;22242;48.796;9.930;2023-02-28T04:01:47;-1.90;99.90
36206;DHT22;22242;48.796;9.930;2023-02-28T04:04:16;-2.00;99.90
36206;DHT22;22242;48.796;9.930;2023-02-28T04:06:44;-2.00;99.90
36206;DHT22;22242;48.796;9.930;2023-02-28T04:09:13;-2.00;99.90
36206;DHT22;22242;48.796;9.930;2023-02-28T04:11:42;-1.90;99.90
36206;DHT22;22242;48.796;9.930;2023-02-28T04:14:11;-1.90;99.90
36206;DHT22;22242;48.796;9.930;2023-02-28T04:16:39;-1.90;99.90
36206;DHT22;22242;48.796;9.930;2023-02-28T04:19:08;-1.90;99.90
36206;DHT22;22242;48.796;9.930;2023-02-28T04:21:37;-1.90;99.90
36206;DHT22;22242;48.796;9.930;2023-02-28T04:24:09;-1.90;99.90
36206;DHT22;22242;48.796;9.930;2023-02-28T04:26:41;-1.90;99.90
36206;DHT22;22242;48.796;9.930;2023-02-28T04:29:10;-1.90;99.90
36206;DHT22;22242;48.796;9.930;2023-02-28T04:31:38;-1.90;99.90
36206;DHT22;22242;48.796;9.930;2023-02-28T04:34:05;-1.90;99.90
36206;DHT22;22242;48.796;9.930;2023-02-28T04:36:32;-1.90;99.90
36206;DHT22;22242;48.796;9.930;2023-02-28T04:38:59;-1.90;99.90
36206;DHT22;22242;48.796;9.930;2023-02-28T04:41:28;-1.90;99.90
36206;DHT22;22242;48.796;9.930;2023-02-28T04:43:55;-1.90;99.90
36206;DHT22;22242;48.796;9.930;2023-02-28T04:46:23;-1.80;99.90
36206;DHT22;22242;48.796;9.930;2023-02-28T04:48:50;-2.00;99.90
36206;DHT22;22242;48.796;9.930;2023-02-28T04:51:18;-1.90;99.90
36206;DHT22;22242;48.796;9.930;2023-02-28T04:53:46;-2.00;99.90
36206;DHT22;22242;48.796;9.930;2023-02-28T04:56:15;-2.00;99.90
36206;DHT22;22242;48.796;9.930;2023-02-28T04:58:44;-2.00;99.90
36206;DHT22;22242;48.796;9.930;2023-02-28T05:01:22;-2.00;99.90
36206;DHT22;22242;48.796;9.930;2023-02-28T05:03:51;-1.90;99.90
36206;DHT22;22242;48.796;9.930;2023-02-28T05:06:19;-2.00;99.90
36206;DHT22;22242;48.796;9.930;2023-02-28T05:08:47;-2.00;99.90
36206;DHT22;22242;48.796;9.930;2023-02-28T05:11:17;-2.00;99.90
36206;DHT22;22242;48.796;9.930;2023-02-28T05:13:46;-1.90;99.90
36206;DHT22;22242;48.796;9.930;2023-02-28T05:16:13;-2.00;99.90
36206;DHT22;22242;48.796;9.930;2023-02-28T05:18:41;-2.00;99.90
36206;DHT22;22242;48.796;9.930;2023-02-28T05:21:23;-2.00;99.90
36206;DHT22;22242;48.796;9.930;2023-02-28T05:23:50;-2.00;99.90
36206;DHT22;22242;48.796;9.930;2023-02-28T05:26:17;-2.00;99.90
36206;DHT22;22242;48.796;9.930;2023-02-28T05:28:46;-2.00;99.90
36206;DHT22;22242;48.796;9.930;2023-02-28T05:31:13;-1.90;99.90
36206;DHT22;22242;48.796;9.930;2023-02-28T05:33:41;-2.00;99.90
36206;DHT22;22242;48.796;9.930;2023-02-28T05:36:08;-2.00;99.90
36206;DHT22;22242;48.796;9.930;2023-02-28T05:38:36;-1.90;99.90
36206;DHT22;22242;48.796;9.930;2023-02-28T05:41:06;-1.90;99.90
36206;DHT22;22242;48.796;9.930;2023-02-28T05:43:33;-1.90;99.90
36206;DHT22;22242;48.796;9.930;2023-02-28T05:46:04;-2.00;99.90
36206;DHT22;22242;48.796;9.930;2023-02-28T05:48:31;-2.00;99.90
36206;DHT22;22242;48.796;9.930;2023-02-28T05:50:59;-2.00;99.90
36206;DHT22;22242;48.796;9.930;2023-02-28T05:53:26;-1.90;99.90
36206;DHT22;22242;48.796;9.930;2023-02-28T05:55:53;-2.00;99.90
36206;DHT22;22242;48.796;9.930;2023-02-28T05:58:20;-2.00;99.90
36206;DHT22;22242;48.796;9.930;2023-02-28T06:00:48;-2.00;99.90
36206;DHT22;22242;48.796;9.930;2023-02-28T06:03:16;-2.00;99.90
36206;DHT22;22242;48.796;9.930;2023-02-28T06:05:43;-2.00;99.90
36206;DHT22;22242;48.796;9.930;2023-02-28T06:08:11;-1.90;99.90
36206;DHT22;22242;48.796;9.930;2023-02-28T06:10:37;-1.90;99.90
36206;DHT22;22242;48.796;9.930;2023-02-28T06:13:05;-1.90;99.90
36206;DHT22;22242;48.796;9.930;2023-02-28T06:15:32;-1.80;99.90
36206;DHT22;22242;48.796;9.930;2023-02-28T06:18:00;-1.80;99.90
36206;DHT22;22242;48.796;9.930;2023-02-28T06:20:28;-1.80;99.90
36206;DHT22;22242;48.796;9.930;2023-02-28T06:22:56;-1.80;99.90
36206;DHT22;22242;48.796;9.930;2023-02-28T06:25:25;-1.80;99.90
36206;DHT22;22242;48.796;9.930;2023-02-28T06:27:52;-1.80;99.90
36206;DHT22;22242;48.796;9.930;2023-02-28T06:30:19;-1.80;99.90
36206;DHT22;22242;48.796;9.930;2023-02-28T06:32:53;-1.80;99.90
36206;DHT22;22242;48.796;9.930;2023-02-28T06:35:20;-1.80;99.90
36206;DHT22;22242;48.796;9.930;2023-02-28T06:37:48;-1.80;99.90
36206;DHT22;22242;48.796;9.930;2023-02-28T06:40:15;-1.60;99.90
36206;DHT22;22242;48.796;9.930;2023-02-28T06:42:43;-1.70;99.90
36206;DHT22;22242;48.796;9.930;2023-02-28T06:45:11;-1.60;99.90
36206;DHT22;22242;48.796;9.930;2023-02-28T06:47:39;-1.50;99.90
36206;DHT22;22242;48.796;9.930;2023-02-28T06:50:09;-1.50;99.90
36206;DHT22;22242;48.796;9.930;2023-02-28T06:52:36;-1.40;99.90
36206;DHT22;22242;48.796;9.930;2023-02-28T06:55:07;-1.40;99.90
36206;DHT22;22242;48.796;9.930;2023-02-28T06:57:35;-1.30;99.90
36206;DHT22;22242;48.796;9.930;2023-02-28T07:00:05;-1.50;99.90
36206;DHT22;22242;48.796;9.930;2023-02-28T07:02:33;-1.50;99.90
36206;DHT22;22242;48.796;9.930;2023-02-28T07:05:00;-1.40;99.90
36206;DHT22;22242;48.796;9.930;2023-02-28T07:07:27;-1.40;99.90
36206;DHT22;22242;48.796;9.930;2023-02-28T07:09:54;-1.30;99.90
36206;DHT22;22242;48.796;9.930;2023-02-28T07:12:23;-1.40;99.90
36206;DHT22;22242;48.796;9.930;2023-02-28T07:14:50;-1.40;99.90
36206;DHT22;22242;48.796;9.930;2023-02-28T07:17:18;-1.30;99.90
36206;DHT22;22242;48.796;9.930;2023-02-28T07:19:45;-1.20;99.90
36206;DHT22;22242;48.796;9.930;2023-02-28T07:22:12;-1.20;99.90
36206;DHT22;22242;48.796;9.930;2023-02-28T07:24:39;-1.20;99.90
36206;DHT22;22242;48.796;9.930;2023-02-28T07:27:06;-1.10;99.90
36206;DHT22;22242;48.796;9.930;2023-02-28T07:29:34;-1.10;99.90
36206;DHT22;22242;48.796;9.930;2023-02-28T07:32:02;-0.90;99.90
36206;DHT22;22242;48.796;9.930;2023-02-28T07:34:29;-0.90;99.90
36206;DHT22;22242;48.796;9.930;2023-02-28T07:36:56;-0.90;99.90
36206;DHT22;22242;48.796;9.930;2023-02-28T07:39:24;-0.80;99.90
36206;DHT22;22242;48.796;9.930;2023-02-28T07:41:51;-0.90;99.90
36206;DHT22;22242;48.796;9.930;2023-02-28T07:44:18;-0.80;99.90
36206;DHT22;22242;48.796;9.930;2023-02-28T07:46:48;-0.70;99.90
36206;DHT22;22242;48.796;9.930;2023-02-28T07:49:15;-0.80;99.90
36206;DHT22;22242;48.796;9.930;2023-02-28T07:51:42;-0.70;99.90
36206;DHT22;22242;48.796;9.930;2023-02-28T07:54:09;-0.40;99.90
36206;DHT22;22242;48.796;9.930;2023-02-28T07:56:36;-0.20;99.90
36206;DHT22;22242;48.796;9.930;2023-02-28T07:59:03;-0.30;99.90
36206;DHT22;22242;48.796;9.930;2023-02-28T08:01:30;-0.20;99.90
36206;DHT22;22242;48.796;9.930;2023-02-28T08:03:59;-0.40;99.90
36206;DHT22;22242;48.796;9.930;2023-02-28T08:06:26;-0.30;99.90
36206;DHT22;22242;48.796;9.930;2023-02-28T08:08:53;-0.10;99.90
36206;DHT22;22242;48.796;9.930;2023-02-28T08:11:21;0.10;99.90
36206;DHT22;22242;48.796;9.930;2023-02-28T08:13:49;0.20;99.90
36206;DHT22;22242;48.796;9.930;2023-02-28T08:16:16;0.30;99.90
36206;DHT22;22242;48.796;9.930;2023-02-28T08:18:48;0.50;99.90
36206;DHT22;22242;48.796;9.930;2023-02-28T08:21:17;0.70;99.90
36206;DHT22;22242;48.796;9.930;2023-02-28T08:23:46;0.80;99.90
36206;DHT22;22242;48.796;9.930;2023-02-28T08:26:13;0.70;99.90
36206;DHT22;22242;48.796;9.930;2023-02-28T08:28:40;1.20;99.90
36206;DHT22;22242;48.796;9.930;2023-02-28T08:31:08;1.40;99.90
36206;DHT22;22242;48.796;9.930;2023-02-28T08:33:36;1.10;99.90
36206;DHT22;22242;48.796;9.930;2023-02-28T08:36:05;1.60;99.90
36206;DHT22;22242;48.796;9.930;2023-02-28T08:38:34;1.50;99.90
36206;DHT22;22242;48.796;9.930;2023-02-28T08:41:04;1.80;99.90
36206;DHT22;22242;48.796;9.930;2023-02-28T08:43:33;1.50;99.90
36206;DHT22;22242;48.796;9.930;2023-02-28T08:46:00;2.10;99.90
36206;DHT22;22242;48.796;9.930;2023-02-28T08:48:28;2.80;99.90
36206;DHT22;22242;48.796;9.930;2023-02-28T08:50:57;3.70;99.90
36206;DHT22;22242;48.796;9.930;2023-02-28T08:53:24;2.90;99.90
36206;DHT22;22242;48.796;9.930;2023-02-28T08:56:00;2.80;99.90
36206;DHT22;22242;48.796;9.930;2023-02-28T08:58:28;3.60;99.90
36206;DHT22;22242;48.796;9.930;2023-02-28T09:00:55;3.00;99.90
36206;DHT22;22242;48.796;9.930;2023-02-28T09:03:23;2.70;99.90
36206;DHT22;22242;48.796;9.930;2023-02-28T09:05:54;2.40;99.90
36206;DHT22;22242;48.796;9.930;2023-02-28T09:08:22;2.00;99.90
36206;DHT22;22242;48.796;9.930;2023-02-28T09:10:49;2.40;99.90
36206;DHT22;22242;48.796;9.930;2023-02-28T09:13:18;2.30;99.90
36206;DHT22;22242;48.796;9.930;2023-02-28T09:15:45;2.30;99.90
36206;DHT22;22242;48.796;9.930;2023-02-28T09:18:12;2.10;99.90
36206;DHT22;22242;48.796;9.930;2023-02-28T09:20:40;1.70;99.90
36206;DHT22;22242;48.796;9.930;2023-02-28T09:23:08;1.60;99.90
36206;DHT22;22242;48.796;9.930;2023-02-28T09:25:35;1.80;99.90
36206;DHT22;22242;48.796;9.930;2023-02-28T09:28:03;2.00;99.90
36206;DHT22;22242;48.796;9.930;2023-02-28T09:30:31;2.10;99.90
36206;DHT22;22242;48.796;9.930;2023-02-28T09:32:59;2.30;99.90
36206;DHT22;22242;48.796;9.930;2023-02-28T09:35:26;2.60;99.90
36206;DHT22;22242;48.796;9.930;2023-02-28T09:37:53;2.30;99.90
36206;DHT22;22242;48.796;9.930;2023-02-28T09:40:22;2.40;99.90
36206;DHT22;22242;48.796;9.930;2023-02-28T09:42:53;2.30;99.90
36206;DHT22;22242;48.796;9.930;2023-02-28T09:45:24;2.20;99.90
36206;DHT22;22242;48.796;9.930;2023-02-28T09:47:55;2.00;99.90
36206;DHT22;22242;48.796;9.930;2023-02-28T09:50:31;2.20;99.90
36206;DHT22;22242;48.796;9.930;2023-02-28T09:53:02;2.10;99.90
36206;DHT22;22242;48.796;9.930;2023-02-28T09:55:33;4.10;99.90
36206;DHT22;22242;48.796;9.930;2023-02-28T09:58:04;5.10;99.50
36206;DHT22;22242;48.796;9.930;2023-02-28T10:00:33;5.10;98.40
36206;DHT22;22242;48.796;9.930;2023-02-28T10:03:25;5.00;96.70
36206;DHT22;22242;48.796;9.930;2023-02-28T10:05:58;5.50;95.90
36206;DHT22;22242;48.796;9.930;2023-02-28T10:08:29;7.00;93.10
36206;DHT22;22242;48.796;9.930;2023-02-28T10:11:00;7.70;90.50
36206;DHT22;22242;48.796;9.930;2023-02-28T10:13:33;7.10;89.90
36206;DHT22;22242;48.796;9.930;2023-02-28T10:16:04;5.70;91.10
36206;DHT22;22242;48.796;9.930;2023-02-28T10:18:41;5.00;93.40
36206;DHT22;22242;48.796;9.930;2023-02-28T10:21:17;4.20;95.30
36206;DHT22;22242;48.796;9.930;2023-02-28T10:23:48;3.80;96.60
36206;DHT22;22242;48.796;9.930;2023-02-28T10:26:17;3.50;97.80
36206;DHT22;22242;48.796;9.930;2023-02-28T10:28:44;3.00;99.70
36206;DHT22;22242;48.796;9.930;2023-02-28T10:31:14;2.80;99.70
36206;DHT22;22242;48.796;9.930;2023-02-28T10:33:45;2.80;99.80
36206;DHT22;22242;48.796;9.930;2023-02-28T10:36:14;2.80;99.90
36206;DHT22;22242;48.796;9.930;2023-02-28T10:38:43;3.20;99.90
36206;DHT22;22242;48.796;9.930;2023-02-28T10:41:12;3.50;99.90
36206;DHT22;22242;48.796;9.930;2023-02-28T10:43:41;3.60;99.90
36206;DHT22;22242;48.796;9.930;2023-02-28T10:46:15;4.30;99.10
36206;DHT22;22242;48.796;9.930;2023-02-28T10:49:02;3.60;99.20
36206;DHT22;22242;48.796;9.930;2023-02-28T10:51:37;3.60;99.90
36206;DHT22;22242;48.796;9.930;2023-02-28T10:54:05;3.40;99.90
36206;DHT22;22242;48.796;9.930;2023-02-28T10:56:32;3.10;99.90
36206;DHT22;22242;48.796;9.930;2023-02-28T10:59:01;3.70;99.90
36206;DHT22;22242;48.796;9.930;2023-02-28T11:01:37;3.90;99.90
36206;DHT22;22242;48.796;9.930;2023-02-28T11:04:18;4.80;98.30
36206;DHT22;22242;48.796;9.930;2023-02-28T11:06:48;5.10;96.00
36206;DHT22;22242;48.796;9.930;2023-02-28T11:09:27;4.70;96.50
36206;DHT22;22242;48.796;9.930;2023-02-28T11:11:56;4.60;97.40
36206;DHT22;22242;48.796;9.930;2023-02-28T11:14:25;5.00;97.10
36206;DHT22;22242;48.796;9.930;2023-02-28T11:16:54;5.50;95.50
36206;DHT22;22242;48.796;9.930;2023-02-28T11:19:26;6.40;93.80
36206;DHT22;22242;48.796;9.930;2023-02-28T11:21:57;7.10;92.80
36206;DHT22;22242;48.796;9.930;2023-02-28T11:24:29;8.00;90.70
36206;DHT22;22242;48.796;9.930;2023-02-28T11:26:57;7.90;88.80
36206;DHT22;22242;48.796;9.930;2023-02-28T11:29:25;8.00;88.80
36206;DHT22;22242;48.796;9.930;2023-02-28T11:32:05;7.80;87.40
36206;DHT22;22242;48.796;9.930;2023-02-28T11:34:39;8.10;85.60
36206;DHT22;22242;48.796;9.930;2023-02-28T11:37:11;7.20;86.60
36206;DHT22;22242;48.796;9.930;2023-02-28T11:39:39;7.10;86.50
36206;DHT22;22242;48.796;9.930;2023-02-28T11:42:29;7.00;86.80
36206;DHT22;22242;48.796;9.930;2023-02-28T11:45:07;7.10;88.80
36206;DHT22;22242;48.796;9.930;2023-02-28T11:47:44;6.60;87.00
36206;DHT22;22242;48.796;9.930;2023-02-28T11:50:34;6.60;89.40
36206;DHT22;22242;48.796;9.930;2023-02-28T11:53:12;6.80;88.70
36206;DHT22;22242;48.796;9.930;2023-02-28T11:55:43;6.60;89.70
36206;DHT22;22242;48.796;9.930;2023-02-28T11:58:30;6.20;89.50
36206;DHT22;22242;48.796;9.930;2023-02-28T12:01:15;5.80;90.80
36206;DHT22;22242;48.796;9.930;2023-02-28T12:03:48;5.60;91.60
36206;DHT22;22242;48.796;9.930;2023-02-28T12:06:22;5.90;92.20
36206;DHT22;22242;48.796;9.930;2023-02-28T12:09:04;6.10;92.70
36206;DHT22;22242;48.796;9.930;2023-02-28T12:11:44;5.90;91.20
36206;DHT22;22242;48.796;9.930;2023-02-28T12:14:36;5.60;92.20
36206;DHT22;22242;48.796;9.930;2023-02-28T12:17:21;5.60;92.00
36206;DHT22;22242;48.796;9.930;2023-02-28T12:19:55;5.70;92.30
36206;DHT22;22242;48.796;9.930;2023-02-28T12:22:31;5.70;92.30
36206;DHT22;22242;48.796;9.930;2023-02-28T12:25:21;5.40;92.20
36206;DHT22;22242;48.796;9.930;2023-02-28T12:27:50;5.00;93.40
36206;DHT22;22242;48.796;9.930;2023-02-28T12:30:22;5.10;93.10
36206;DHT22;22242;48.796;9.930;2023-02-28T12:32:54;5.20;93.80
36206;DHT22;22242;48.796;9.930;2023-02-28T12:35:26;5.20;92.80
36206;DHT22;22242;48.796;9.930;2023-02-28T12:38:02;5.00;93.10
36206;DHT22;22242;48.796;9.930;2023-02-28T12:40:39;4.90;93.40
36206;DHT22;22242;48.796;9.930;2023-02-28T12:43:09;4.90;93.80
36206;DHT22;22242;48.796;9.930;2023-02-28T12:45:41;4.90;93.80
36206;DHT22;22242;48.796;9.930;2023-02-28T12:48:14;5.00;93.60
36206;DHT22;22242;48.796;9.930;2023-02-28T12:50:42;4.80;93.40
36206;DHT22;22242;48.796;9.930;2023-02-28T12:53:15;5.00;93.60
36206;DHT22;22242;48.796;9.930;2023-02-28T12:55:49;4.90;93.40
36206;DHT22;22242;48.796;9.930;2023-02-28T12:58:22;5.10;93.70
36206;DHT22;22242;48.796;9.930;2023-02-28T13:01:08;5.20;93.70
36206;DHT22;22242;48.796;9.930;2023-02-28T13:04:21;5.50;93.60
36206;DHT22;22242;48.796;9.930;2023-02-28T13:07:19;5.50;92.90
36206;DHT22;22242;48.796;9.930;2023-02-28T13:09:53;5.00;93.30
36206;DHT22;22242;48.796;9.930;2023-02-28T13:12:21;4.90;94.00
36206;DHT22;22242;48.796;9.930;2023-02-28T13:14:50;5.00;93.40
36206;DHT22;22242;48.796;9.930;2023-02-28T13:17:19;5.10;93.30
36206;DHT22;22242;48.796;9.930;2023-02-28T13:19:57;5.00;93.90
36206;DHT22;22242;48.796;9.930;2023-02-28T13:22:39;5.00;93.90
36206;DHT22;22242;48.796;9.930;2023-02-28T13:34:40;5.00;93.10
36206;DHT22;22242;48.796;9.930;2023-02-28T13:37:44;5.00;94.00
36206;DHT22;22242;48.796;9.930;2023-02-28T13:40:30;4.90;93.50
36206;DHT22;22242;48.796;9.930;2023-02-28T13:43:02;5.20;93.60
36206;DHT22;22242;48.796;9.930;2023-02-28T13:45:32;5.30;94.40
36206;DHT22;22242;48.796;9.930;2023-02-28T13:48:05;5.20;94.00
36206;DHT22;22242;48.796;9.930;2023-02-28T13:50:42;5.00;94.30
36206;DHT22;22242;48.796;9.930;2023-02-28T13:53:30;5.00;94.90
36206;DHT22;22242;48.796;9.930;2023-02-28T13:56:05;4.90;94.60
36206;DHT22;22242;48.796;9.930;2023-02-28T13:58:46;4.80;95.70
36206;DHT22;22242;48.796;9.930;2023-02-28T14:01:29;4.70;95.60
36206;DHT22;22242;48.796;9.930;2023-02-28T14:04:11;4.40;96.20
36206;DHT22;22242;48.796;9.930;2023-02-28T14:06:47;4.40;96.30
36206;DHT22;22242;48.796;9.930;2023-02-28T14:09:23;4.20;97.00
36206;DHT22;22242;48.796;9.930;2023-02-28T14:11:51;4.20;97.70
36206;DHT22;22242;48.796;9.930;2023-02-28T14:14:55;4.10;97.90
36206;DHT22;22242;48.796;9.930;2023-02-28T14:17:26;4.10;97.60
36206;DHT22;22242;48.796;9.930;2023-02-28T14:19:58;4.00;98.10
36206;DHT22;22242;48.796;9.930;2023-02-28T14:22:44;4.00;98.20
36206;DHT22;22242;48.796;9.930;2023-02-28T14:25:20;4.10;98.70
36206;DHT22;22242;48.796;9.930;2023-02-28T14:27:50;4.00;98.40
36206;DHT22;22242;48.796;9.930;2023-02-28T14:33:40;4.00;98.90
36206;DHT22;22242;48.796;9.930;2023-02-28T14:36:14;4.00;98.70
36206;DHT22;22242;48.796;9.930;2023-02-28T14:38:46;3.90;99.00
36206;DHT22;22242;48.796;9.930;2023-02-28T14:41:21;4.10;99.00
36206;DHT22;22242;48.796;9.930;2023-02-28T14:43:54;3.90;99.10
36206;DHT22;22242;48.796;9.930;2023-02-28T14:46:25;4.10;99.10
36206;DHT22;22242;48.796;9.930;2023-02-28T14:48:55;3.90;98.70
36206;DHT22;22242;48.796;9.930;2023-02-28T14:51:23;3.80;98.90
36206;DHT22;22242;48.796;9.930;2023-02-28T14:53:57;3.90;99.10
36206;DHT22;22242;48.796;9.930;2023-02-28T14:56:28;3.90;98.90
36206;DHT22;22242;48.796;9.930;2023-02-28T14:58:57;3.80;99.00
36206;DHT22;22242;48.796;9.930;2023-02-28T15:01:25;3.80;99.40
36206;DHT22;22242;48.796;9.930;2023-02-28T15:04:02;3.90;99.30
36206;DHT22;22242;48.796;9.930;2023-02-28T15:06:30;3.90;99.50
36206;DHT22;22242;48.796;9.930;2023-02-28T15:09:13;4.00;99.50
36206;DHT22;22242;48.796;9.930;2023-02-28T15:11:41;3.90;99.60
36206;DHT22;22242;48.796;9.930;2023-02-28T15:14:15;3.90;99.90
36206;DHT22;22242;48.796;9.930;2023-02-28T15:16:44;3.80;99.90
36206;DHT22;22242;48.796;9.930;2023-02-28T15:19:19;3.70;99.00
36206;DHT22;22242;48.796;9.930;2023-02-28T15:21:50;3.60;99.60
36206;DHT22;22242;48.796;9.930;2023-02-28T15:24:20;3.70;99.90
36206;DHT22;22242;48.796;9.930;2023-02-28T15:26:54;3.60;99.90
36206;DHT22;22242;48.796;9.930;2023-02-28T15:29:25;3.40;99.70
36206;DHT22;22242;48.796;9.930;2023-02-28T15:31:56;3.40;99.90
36206;DHT22;22242;48.796;9.930;2023-02-28T15:34:33;3.50;99.90
36206;DHT22;22242;48.796;9.930;2023-02-28T15:37:01;3.30;99.90
36206;DHT22;22242;48.796;9.930;2023-02-28T15:39:29;3.40;99.90
36206;DHT22;22242;48.796;9.930;2023-02-28T15:42:11;3.30;99.90
36206;DHT22;22242;48.796;9.930;2023-02-28T15:44:38;3.30;99.90
36206;DHT22;22242;48.796;9.930;2023-02-28T15:47:14;3.20;99.90
36206;DHT22;22242;48.796;9.930;2023-02-28T15:49:48;3.10;99.90
36206;DHT22;22242;48.796;9.930;2023-02-28T15:52:17;3.00;99.90
36206;DHT22;22242;48.796;9.930;2023-02-28T15:54:46;3.00;99.90
36206;DHT22;22242;48.796;9.930;2023-02-28T15:57:15;3.00;99.90
36206;DHT22;22242;48.796;9.930;2023-02-28T15:59:49;3.00;99.90
36206;DHT22;22242;48.796;9.930;2023-02-28T16:02:18;2.90;99.90
36206;DHT22;22242;48.796;9.930;2023-02-28T16:05:00;2.80;99.90
36206;DHT22;22242;48.796;9.930;2023-02-28T16:07:28;2.80;99.90
36206;DHT22;22242;48.796;9.930;2023-02-28T16:09:56;2.70;99.90
36206;DHT22;22242;48.796;9.930;2023-02-28T16:12:26;2.70;99.90
36206;DHT22;22242;48.796;9.930;2023-02-28T16:14:56;2.60;99.90
36206;DHT22;22242;48.796;9.930;2023-02-28T16:17:26;2.50;99.90
36206;DHT22;22242;48.796;9.930;2023-02-28T16:19:54;2.40;99.90
36206;DHT22;22242;48.796;9.930;2023-02-28T16:22:23;2.40;99.90
36206;DHT22;22242;48.796;9.930;2023-02-28T16:24:50;2.20;99.90